createdAt,value
2023-02-11T00:02:19.665Z,99993.16
2023-02-11T00:05:35.196Z,99991.00
2023-02-11T00:08:39.542Z,100004.50
2023-02-11T00:11:43.740Z,100003.88
2023-02-11T00:14:48.937Z,100003.91
2023-02-11T00:17:53.288Z,99997.28
2023-02-11T00:20:56.892Z,99994.41
2023-02-11T00:24:02.439Z,99994.56
2023-02-11T00:27:06.387Z,99998.13
2023-02-11T00:30:13.646Z,99992.19
2023-02-11T00:33:17.488Z,99992.81
2023-02-11T00:36:23.659Z,99992.50
2023-02-11T00:39:28.056Z,99994.72
2023-02-11T00:42:33.282Z,99994.56
2023-02-11T00:45:38.385Z,99992.31
2023-02-11T00:48:44.254Z,99990.25
2023-02-11T00:51:47.926Z,99994.75
2023-02-11T00:54:52.505Z,99999.56
2023-02-11T00:57:59.681Z,99992.38
2023-02-11T01:01:06.031Z,99997.44
2023-02-11T01:04:09.782Z,99992.22
2023-02-11T01:07:14.450Z,99990.59
2023-02-11T01:10:18.169Z,99982.59
2023-02-11T01:13:22.501Z,99989.34
2023-02-11T01:16:27.574Z,99967.38
2023-02-11T01:19:32.401Z,99971.69
2023-02-11T01:22:40.012Z,99972.50
2023-02-11T01:25:45.619Z,99964.81
2023-02-11T01:28:49.802Z,99957.94
2023-02-11T01:31:56.480Z,99964.97
2023-02-11T01:35:03.444Z,99962.91
2023-02-11T01:38:08.836Z,99973.00
2023-02-11T01:41:15.118Z,99957.78
2023-02-11T01:44:33.652Z,99957.78
2023-02-11T01:47:39.140Z,99960.66
2023-02-11T01:50:44.439Z,99956.34
2023-02-11T01:54:13.912Z,99941.94
2023-02-11T01:57:23.510Z,99946.69
2023-02-11T02:00:35.997Z,99940.16
2023-02-11T02:03:47.708Z,99943.53
2023-02-11T02:06:59.317Z,99940.16
2023-02-11T02:10:12.233Z,99936.19
2023-02-11T02:13:17.529Z,99938.91
2023-02-11T02:16:35.058Z,99929.44
2023-02-11T02:20:15.169Z,99925.94
2023-02-11T02:23:37.316Z,99925.94
2023-02-11T02:27:14.441Z,99922.56
2023-02-11T02:30:53.144Z,99923.84
2023-02-11T02:34:04.319Z,99922.41
2023-02-11T02:37:14.448Z,99920.31
2023-02-11T02:40:24.408Z,99925.91
2023-02-11T02:43:32.861Z,99919.22
2023-02-11T02:46:37.782Z,99911.53
2023-02-11T02:49:43.741Z,99913.75
2023-02-11T02:52:57.861Z,99906.88
2023-02-11T02:56:07.911Z,99914.25
2023-02-11T02:59:26.727Z,99912.81
2023-02-11T03:02:36.348Z,99909.91
2023-02-11T03:05:50.730Z,99910.25
2023-02-11T03:09:01.037Z,99904.81
2023-02-11T03:12:07.856Z,99907.53
2023-02-11T03:15:15.169Z,99902.41
2023-02-11T03:18:21.695Z,99894.88
2023-02-11T03:21:28.457Z,99900.44
2023-02-11T03:24:35.836Z,99898.56
2023-02-11T03:27:53.445Z,99888.16
2023-02-11T03:31:09.283Z,99890.38
2023-02-11T03:34:17.382Z,99894.09
2023-02-11T03:37:30.084Z,99892.94
2023-02-11T03:40:39.012Z,99896.66
2023-02-11T03:43:46.954Z,99894.03
2023-02-11T03:46:53.577Z,99885.28
2023-02-11T03:50:00.822Z,99878.09
2023-02-11T03:53:07.321Z,99878.88
2023-02-11T03:56:16.268Z,99876.31
2023-02-11T03:59:20.808Z,99879.19
2023-02-11T04:02:28.730Z,99874.25
2023-02-11T04:05:33.025Z,99873.59
2023-02-11T04:08:38.324Z,99870.38
2023-02-11T04:11:43.257Z,99872.94
2023-02-11T04:14:47.607Z,99862.06
2023-02-11T04:17:52.098Z,99867.03
2023-02-11T04:20:56.198Z,99868.16
2023-02-11T04:24:01.893Z,99861.56
2023-02-11T04:27:06.174Z,99857.59
2023-02-11T04:30:11.423Z,99851.66
2023-02-11T04:33:15.292Z,99855.56
2023-02-11T04:36:19.743Z,99850.19
2023-02-11T04:39:25.319Z,99852.13
2023-02-11T04:42:31.065Z,99847.16
2023-02-11T04:45:34.762Z,99839.16
2023-02-11T04:48:38.925Z,99840.03
2023-02-11T04:51:43.213Z,99831.84
2023-02-11T04:54:51.664Z,99830.19
2023-02-11T04:57:57.866Z,99827.94
2023-02-11T05:01:08.288Z,99830.84
2023-02-11T05:04:11.883Z,99822.56
2023-02-11T05:07:16.199Z,99823.03
2023-02-11T05:10:24.396Z,99814.34
2023-02-11T05:13:28.371Z,99810.88
2023-02-11T05:16:33.410Z,99813.88
2023-02-11T05:19:37.411Z,99823.63
2023-02-11T05:22:40.976Z,99823.69
2023-02-11T05:25:46.757Z,99813.53
2023-02-11T05:28:51.901Z,99827.16
2023-02-11T05:31:56.436Z,99830.34
2023-02-11T05:35:00.029Z,99825.78
2023-02-11T05:38:04.080Z,99833.47
2023-02-11T05:41:09.982Z,99839.97
2023-02-11T05:44:14.892Z,99840.81
2023-02-11T05:47:20.670Z,99852.59
2023-02-11T05:50:25.098Z,99857.59
2023-02-11T05:53:30.593Z,99846.84
2023-02-11T05:56:36.613Z,99843.59
2023-02-11T05:59:40.551Z,99842.66
2023-02-11T06:02:45.123Z,99845.34
2023-02-11T06:05:49.078Z,99850.53
2023-02-11T06:08:53.733Z,99855.63
2023-02-11T06:11:58.837Z,99852.22
2023-02-11T06:15:03.233Z,99861.63
2023-02-11T06:18:07.471Z,99855.00
2023-02-11T06:21:13.121Z,99853.59
2023-02-11T06:24:24.668Z,99863.34
2023-02-11T06:27:43.516Z,99868.28
2023-02-11T06:30:47.061Z,99875.66
2023-02-11T06:33:52.010Z,99879.69
2023-02-11T06:36:57.752Z,99863.03
2023-02-11T06:40:04.433Z,99876.97
2023-02-11T06:43:09.374Z,99877.88
2023-02-11T06:46:13.738Z,99887.22
2023-02-11T06:49:17.298Z,99885.34
2023-02-11T06:52:21.283Z,99874.47
2023-02-11T06:55:25.974Z,99870.78
2023-02-11T06:58:36.901Z,99871.03
2023-02-11T07:01:40.683Z,99875.50
2023-02-11T07:04:45.985Z,99879.03
2023-02-11T07:07:50.397Z,99880.09
2023-02-11T07:10:54.533Z,99874.69
2023-02-11T07:14:03.792Z,99871.25
2023-02-11T07:17:09.420Z,99871.84
2023-02-11T07:20:15.330Z,99867.75
2023-02-11T07:23:20.345Z,99866.94
2023-02-11T07:26:25.902Z,99856.75
2023-02-11T07:29:32.125Z,99865.47
2023-02-11T07:32:35.710Z,99867.66
2023-02-11T07:35:42.320Z,99862.75
2023-02-11T07:38:47.348Z,99854.97
2023-02-11T07:41:51.498Z,99843.78
2023-02-11T07:44:56.905Z,99848.72
2023-02-11T07:48:00.893Z,99848.56
2023-02-11T07:51:09.314Z,99840.56
2023-02-11T07:54:16.106Z,99842.66
2023-02-11T07:57:19.695Z,99840.06
2023-02-11T08:00:25.777Z,99831.66
2023-02-11T08:08:56.579Z,99826.34
2023-02-11T08:12:00.463Z,99832.50
2023-02-11T08:15:04.321Z,99824.94
2023-02-11T08:18:09.699Z,99818.03
2023-02-11T08:21:15.364Z,99810.19
2023-02-11T08:24:18.836Z,99815.66
2023-02-11T08:27:23.625Z,99814.31
2023-02-11T08:30:27.709Z,99812.94
2023-02-11T08:34:23.173Z,99818.75
2023-02-11T08:37:31.413Z,99802.22
2023-02-11T08:40:36.869Z,99802.94
2023-02-11T08:43:41.974Z,99793.69
2023-02-11T08:46:45.687Z,99801.22
2023-02-11T08:49:50.514Z,99789.56
2023-02-11T08:52:55.817Z,99788.72
2023-02-11T08:56:00.172Z,99786.22
2023-02-11T08:59:05.139Z,99789.81
2023-02-11T09:02:14.386Z,99792.28
2023-02-11T09:05:18.298Z,99789.25
2023-02-11T09:08:24.688Z,99780.56
2023-02-11T09:11:31.707Z,99785.53
2023-02-11T09:14:35.636Z,99784.66
2023-02-11T09:17:39.166Z,99774.41
2023-02-11T09:20:43.977Z,99780.34
2023-02-11T09:23:50.128Z,99784.16
2023-02-11T09:26:54.316Z,99784.44
2023-02-11T09:29:59.163Z,99782.59
2023-02-11T09:33:03.861Z,99778.22
2023-02-11T09:36:08.697Z,99770.34
2023-02-11T09:39:17.175Z,99762.84
2023-02-11T09:42:41.735Z,99750.63
2023-02-11T09:45:46.332Z,99739.75
2023-02-11T09:48:52.571Z,99745.31
2023-02-11T09:52:03.525Z,99747.19
2023-02-11T09:55:20.159Z,99727.34
2023-02-11T09:58:28.360Z,99727.06
2023-02-11T10:01:41.893Z,99722.94
2023-02-11T10:05:03.574Z,99717.47
2023-02-11T10:08:17.835Z,99715.44
2023-02-11T10:11:32.869Z,99707.00
2023-02-11T10:14:54.715Z,99712.84
2023-02-11T10:18:12.106Z,99707.34
2023-02-11T10:21:26.741Z,99699.19
2023-02-11T10:24:31.493Z,99698.94
2023-02-11T10:27:37.702Z,99689.34
2023-02-11T10:30:46.867Z,99687.81
2023-02-11T10:33:55.698Z,99687.34
2023-02-11T10:37:00.533Z,99683.50
2023-02-11T10:40:04.206Z,99675.75
2023-02-11T10:43:17.648Z,99678.91
2023-02-11T10:46:26.880Z,99679.94
2023-02-11T10:49:38.378Z,99669.88
2023-02-11T10:52:42.285Z,99671.88
2023-02-11T10:55:53.965Z,99666.19
2023-02-11T10:59:03.599Z,99661.19
2023-02-11T11:02:24.020Z,99649.03
2023-02-11T11:05:33.197Z,99650.84
2023-02-11T11:08:43.527Z,99646.31
2023-02-11T11:11:53.959Z,99638.91
2023-02-11T11:15:01.862Z,99631.16
2023-02-11T11:18:23.534Z,99628.16
2023-02-11T11:21:34.824Z,99623.84
2023-02-11T11:24:54.296Z,99616.03
2023-02-11T11:28:02.451Z,99611.06
2023-02-11T11:31:16.254Z,99615.78
2023-02-11T11:34:28.518Z,99614.25
2023-02-11T11:37:34.570Z,99603.56
2023-02-11T11:40:39.731Z,99598.38
2023-02-11T11:43:56.556Z,99582.34
2023-02-11T11:47:26.517Z,99578.53
2023-02-11T11:50:36.926Z,99575.81
2023-02-11T11:53:49.929Z,99567.88
2023-02-11T11:57:01.870Z,99561.28
2023-02-11T12:00:07.227Z,99547.22
2023-02-11T12:03:39.950Z,99545.72
2023-02-11T12:06:57.851Z,99543.47
2023-02-11T12:10:24.999Z,99544.25
2023-02-11T12:13:44.300Z,99536.41
2023-02-11T12:16:58.505Z,99530.53
2023-02-11T12:20:23.833Z,99534.94
2023-02-11T12:23:41.914Z,99519.22
2023-02-11T12:26:51.078Z,99513.31
2023-02-11T12:30:09.415Z,99513.00
2023-02-11T12:33:24.709Z,99496.09
2023-02-11T12:36:42.141Z,99491.41
2023-02-11T12:39:52.398Z,99496.22
2023-02-11T12:43:20.957Z,99479.69
2023-02-11T12:46:40.389Z,99484.38
2023-02-11T12:50:09.384Z,99481.66
2023-02-11T12:53:40.777Z,99475.38
2023-02-11T12:56:50.823Z,99461.63
2023-02-11T13:00:04.477Z,99470.25
2023-02-11T13:03:14.177Z,99463.59
2023-02-11T13:06:24.019Z,99443.97
2023-02-11T13:09:39.774Z,99451.06
2023-02-11T13:13:04.152Z,99447.16
2023-02-11T13:16:21.305Z,99430.22
2023-02-11T13:19:34.580Z,99436.59
2023-02-11T13:22:45.638Z,99444.88
2023-02-11T13:25:58.708Z,99427.94
2023-02-11T13:29:18.889Z,99423.59
2023-02-11T13:32:23.444Z,99437.38
2023-02-11T13:35:32.058Z,99418.09
2023-02-11T13:38:36.632Z,99423.63
2023-02-11T13:41:45.267Z,99431.91
2023-02-11T13:44:50.229Z,99427.19
2023-02-11T13:47:59.437Z,99420.50
2023-02-11T13:51:06.749Z,99422.91
2023-02-11T13:54:23.527Z,99421.69
2023-02-11T13:57:36.574Z,99413.84
2023-02-11T14:00:49.106Z,99409.13
2023-02-11T14:04:40.443Z,99418.56
2023-02-11T14:08:36.344Z,99409.13
2023-02-11T14:11:51.080Z,99412.31
2023-02-11T14:15:33.133Z,99409.56
2023-02-11T14:18:55.795Z,99411.53
2023-02-11T14:22:03.857Z,99416.25
2023-02-11T14:25:20.505Z,99414.66
2023-02-11T14:28:35.059Z,99412.69
2023-02-11T14:31:45.358Z,99406.00
2023-02-11T14:35:01.144Z,99398.53
2023-02-11T14:38:14.009Z,99400.91
2023-02-11T14:41:23.943Z,99403.25
2023-02-11T14:44:31.468Z,99398.16
2023-02-11T14:47:44.504Z,99401.25
2023-02-11T14:50:51.837Z,99398.50
2023-02-11T14:54:02.520Z,99403.94
2023-02-11T14:57:15.857Z,99392.53
2023-02-11T15:00:24.063Z,99399.97
2023-02-11T15:03:34.304Z,99396.03
2023-02-11T15:06:41.498Z,99394.41
2023-02-11T15:09:49.101Z,99399.09
2023-02-11T15:12:54.889Z,99396.75
2023-02-11T15:16:10.139Z,99394.78
2023-02-11T15:19:25.657Z,99393.16
2023-02-11T15:22:33.196Z,99391.50
2023-02-11T15:25:44.344Z,99394.31
2023-02-11T15:28:52.606Z,99390.00
2023-02-11T15:32:15.403Z,99387.56
2023-02-11T15:35:21.617Z,99391.97
2023-02-11T15:38:26.244Z,99384.47
2023-02-11T15:41:37.141Z,99396.19
2023-02-11T15:44:41.588Z,99399.41
2023-02-11T15:47:52.193Z,99392.69
2023-02-11T15:51:03.669Z,99403.66
2023-02-11T15:54:17.898Z,99397.78
2023-02-11T15:57:22.808Z,99390.66
2023-02-11T16:00:33.956Z,99396.53
2023-02-11T16:03:40.822Z,99389.88
2023-02-11T16:06:48.611Z,99385.53
2023-02-11T16:09:58.939Z,99391.03
2023-02-11T16:13:20.403Z,99391.41
2023-02-11T16:16:32.073Z,99392.88
2023-02-11T16:19:38.019Z,99391.34
2023-02-11T16:22:48.188Z,99400.75
2023-02-11T16:26:00.079Z,99395.53
2023-02-11T16:29:06.873Z,99404.44
2023-02-11T16:32:16.782Z,99402.16
2023-02-11T16:35:22.556Z,99417.72
2023-02-11T16:38:27.823Z,99415.34
2023-02-11T16:41:31.304Z,99415.63
2023-02-11T16:44:35.660Z,99415.19
2023-02-11T16:47:42.132Z,99420.25
2023-02-11T16:50:50.665Z,99426.06
2023-02-11T16:53:57.581Z,99416.53
2023-02-11T16:57:03.840Z,99412.50
2023-02-11T17:00:08.958Z,99411.00
2023-02-11T17:03:19.249Z,99417.03
2023-02-11T17:06:22.857Z,99417.50
2023-02-11T17:09:31.234Z,99406.72
2023-02-11T17:12:36.485Z,99402.91
2023-02-11T17:15:40.668Z,99403.72
2023-02-11T17:18:45.576Z,99403.13
2023-02-11T17:21:52.775Z,99399.69
2023-02-11T17:24:58.834Z,99400.25
2023-02-11T17:28:03.107Z,99398.22
2023-02-11T17:31:09.675Z,99406.69
2023-02-11T17:34:14.250Z,99392.38
2023-02-11T17:37:17.768Z,99405.19
2023-02-11T17:40:23.605Z,99402.91
2023-02-11T17:43:27.269Z,99408.59
2023-02-11T17:46:32.278Z,99399.63
2023-02-11T17:49:36.362Z,99404.22
2023-02-11T17:52:41.040Z,99407.31
2023-02-11T17:55:46.008Z,99400.06
2023-02-11T17:58:50.057Z,99404.75
2023-02-11T18:01:53.523Z,99402.69
2023-02-11T18:04:58.951Z,99389.16
2023-02-11T18:08:05.128Z,99402.78
2023-02-11T18:11:12.515Z,99397.50
2023-02-11T18:14:16.135Z,99372.81
2023-02-11T18:17:21.916Z,99374.50
2023-02-11T18:20:25.696Z,99372.69
2023-02-11T18:23:29.571Z,99380.69
2023-02-11T18:26:34.843Z,99389.06
2023-02-11T18:29:39.118Z,99390.91
2023-02-11T18:32:42.766Z,99391.06
2023-02-11T18:35:49.097Z,99390.44
2023-02-11T18:38:54.384Z,99393.44
2023-02-11T18:42:00.142Z,99389.34
2023-02-11T18:45:04.075Z,99377.63
2023-02-11T18:48:07.761Z,99370.00
2023-02-11T18:51:15.877Z,99379.91
2023-02-11T18:54:20.165Z,99388.97
2023-02-11T18:57:25.001Z,99392.75
2023-02-11T19:00:31.227Z,99378.34
2023-02-11T19:03:35.151Z,99360.75
2023-02-11T19:06:40.100Z,99360.06
2023-02-11T19:09:46.489Z,99363.44
2023-02-11T19:12:56.286Z,99362.06
2023-02-11T19:16:00.384Z,99361.63
2023-02-11T19:19:06.922Z,99364.16
2023-02-11T19:22:11.041Z,99361.41
2023-02-11T19:25:15.369Z,99367.22
2023-02-11T19:28:21.010Z,99382.16
2023-02-11T19:31:26.128Z,99381.00
2023-02-11T19:34:30.331Z,99378.09
2023-02-11T19:37:36.724Z,99379.84
2023-02-11T19:40:40.636Z,99385.88
2023-02-11T19:43:47.141Z,99395.41
2023-02-11T19:46:53.396Z,99381.25
2023-02-11T19:49:57.268Z,99392.28
2023-02-11T19:53:45.942Z,99383.44
2023-02-11T19:56:51.799Z,99383.78
2023-02-11T19:59:57.031Z,99371.19
2023-02-11T20:03:02.057Z,99367.28
2023-02-11T20:06:09.562Z,99374.56
2023-02-11T20:09:16.282Z,99355.44
2023-02-11T20:12:19.761Z,99356.13
2023-02-11T20:15:30.943Z,99356.69
2023-02-11T20:18:35.073Z,99349.22
2023-02-11T20:21:40.125Z,99355.75
2023-02-11T20:24:46.835Z,99361.91
2023-02-11T20:27:51.113Z,99371.50
2023-02-11T20:31:01.155Z,99367.03
2023-02-11T20:34:06.649Z,99374.34
2023-02-11T20:37:10.678Z,99373.22
2023-02-11T20:40:14.945Z,99365.72
2023-02-11T20:43:20.659Z,99361.69
2023-02-11T20:46:28.465Z,99364.91
2023-02-11T20:49:32.839Z,99361.59
2023-02-11T20:52:38.009Z,99364.91
2023-02-11T20:55:43.225Z,99362.25
2023-02-11T20:58:48.252Z,99348.44
2023-02-11T21:01:55.999Z,99356.97
2023-02-11T21:05:01.978Z,99346.59
2023-02-11T21:08:06.966Z,99350.88
2023-02-11T21:11:12.287Z,99335.06
2023-02-11T21:14:18.505Z,99348.19
2023-02-11T21:17:26.518Z,99341.06
2023-02-11T21:20:31.031Z,99320.06
2023-02-11T21:23:36.248Z,99330.63
2023-02-11T21:26:41.206Z,99328.56
2023-02-11T21:29:54.181Z,99322.38
2023-02-11T21:33:00.785Z,99308.56
2023-02-11T21:36:08.019Z,99309.41
2023-02-11T21:39:13.689Z,99312.09
2023-02-11T21:42:19.366Z,99307.22
2023-02-11T21:45:24.942Z,99321.03
2023-02-11T21:48:31.519Z,99303.19
2023-02-11T21:51:35.161Z,99311.78
2023-02-11T21:54:39.398Z,99303.97
2023-02-11T21:57:42.885Z,99308.34
2023-02-11T22:00:47.850Z,99305.22
2023-02-11T22:03:53.464Z,99312.72
2023-02-11T22:06:57.763Z,99316.59
2023-02-11T22:10:11.793Z,99319.00
2023-02-11T22:13:16.987Z,99312.25
2023-02-11T22:16:21.428Z,99319.91
2023-02-11T22:19:27.579Z,99316.91
2023-02-11T22:22:31.760Z,99312.84
2023-02-11T22:25:37.902Z,99310.72
2023-02-11T22:28:41.870Z,99304.00
2023-02-11T22:31:45.735Z,99299.06
2023-02-11T22:34:53.192Z,99297.66
2023-02-11T22:37:57.353Z,99293.31
2023-02-11T22:41:02.226Z,99289.31
2023-02-11T22:44:06.313Z,99285.47
2023-02-11T22:47:09.860Z,99282.63
2023-02-11T22:50:15.551Z,99278.09
2023-02-11T22:53:19.359Z,99273.19
2023-02-11T22:56:24.459Z,99281.19
2023-02-11T22:59:27.908Z,99279.66
2023-02-11T23:02:32.901Z,99271.94
2023-02-11T23:05:40.766Z,99268.72
2023-02-11T23:08:45.369Z,99260.19
2023-02-11T23:11:50.251Z,99267.34
2023-02-11T23:14:54.069Z,99259.72
2023-02-11T23:17:57.874Z,99259.88
2023-02-11T23:21:12.393Z,99256.75
2023-02-11T23:24:16.424Z,99259.50
2023-02-11T23:27:22.756Z,99254.75
2023-02-11T23:30:28.009Z,99257.84
2023-02-11T23:33:32.724Z,99251.00
2023-02-11T23:36:40.012Z,99255.63
2023-02-11T23:39:44.441Z,99242.72
2023-02-11T23:42:49.190Z,99248.16
2023-02-11T23:45:53.540Z,99242.06
2023-02-11T23:48:57.500Z,99240.09
2023-02-11T23:52:05.628Z,99241.88
2023-02-11T23:55:09.413Z,99241.81
2023-02-11T23:58:18.693Z,99241.16
